Time;durP1;ratioP1;P1;durP2;ratioP2;P2;SDS_P1;SDS_P2;PMS_P1;PMS_P2;Temp;Humidity;BMP_temperature;BMP_pressure;BME280_temperature;BME280_humidity;BME280_pressure;Samples;Min_cycle;Max_cycle;Signal;HPM_P1;HPM_P2
2021/03/01 00:00:29;;;;;;;19.63;10.33;;;;;;;4.04;57.45;98030.19;5065603;28;20178;-67
2021/03/01 00:02:55;;;;;;;19.77;10.93;;;;;;;4.05;57.63;98025.84;5074704;28;20269;-66
2021/03/01 00:05:22;;;;;;;16.00;10.23;;;;;;;3.70;58.48;98027.00;5073329;28;20199;-65
2021/03/01 00:07:47;;;;;;;17.57;9.50;;;;;;;4.03;57.41;98025.09;5073408;28;20213;-65
2021/03/01 00:10:13;;;;;;;16.90;10.10;;;;;;;3.68;58.51;98023.66;5072355;28;20460;-65
2021/03/01 00:12:39;;;;;;;18.70;10.13;;;;;;;3.43;59.58;98032.00;5073777;28;20179;-65
2021/03/01 00:15:06;;;;;;;16.87;10.60;;;;;;;3.31;59.62;98029.19;5074222;28;20409;-64
2021/03/01 00:17:32;;;;;;;15.00;10.13;;;;;;;3.45;59.31;98028.41;5073041;28;20198;-64
2021/03/01 00:19:58;;;;;;;19.30;10.73;;;;;;;3.39;59.72;98028.78;5073110;28;20565;-65
2021/03/01 00:22:23;;;;;;;20.00;9.90;;;;;;;3.47;59.02;98026.56;5074365;28;20174;-65
2021/03/01 00:24:49;;;;;;;15.90;9.70;;;;;;;3.70;58.52;98029.59;5069359;28;20550;-65
2021/03/01 00:27:15;;;;;;;18.77;10.73;;;;;;;3.78;58.24;98029.97;5072369;28;20183;-67
2021/03/01 00:29:40;;;;;;;19.60;10.60;;;;;;;3.46;59.11;98027.47;5063610;28;20597;-64
2021/03/01 00:32:06;;;;;;;15.60;9.90;;;;;;;3.43;58.96;98024.25;5072403;28;20645;-64
2021/03/01 00:34:32;;;;;;;15.50;9.87;;;;;;;3.32;59.58;98038.66;5073801;28;20261;-64
2021/03/01 00:36:58;;;;;;;17.40;9.43;;;;;;;3.33;59.78;98037.72;5073400;28;20579;-66
2021/03/01 00:39:24;;;;;;;15.40;9.00;;;;;;;3.40;59.74;98035.63;5071853;28;20175;-65
2021/03/01 00:41:49;;;;;;;13.83;9.40;;;;;;;3.74;58.45;98038.88;5064731;28;20179;-64
2021/03/01 00:44:15;;;;;;;19.67;9.40;;;;;;;3.76;58.50;98031.84;5073078;28;20576;-64
2021/03/01 00:46:41;;;;;;;15.10;9.50;;;;;;;3.86;57.92;98033.88;5073539;28;20203;-65
2021/03/01 00:49:06;;;;;;;15.40;9.20;;;;;;;3.61;57.79;98032.72;5071663;28;20289;-66
2021/03/01 00:51:32;;;;;;;15.70;9.27;;;;;;;3.57;58.55;98024.28;5072104;28;20645;-65
2021/03/01 00:53:58;;;;;;;17.47;9.90;;;;;;;3.66;58.78;98030.69;5075590;28;20175;-65
2021/03/01 00:56:23;;;;;;;18.30;9.90;;;;;;;3.62;58.60;98031.78;5073622;28;20231;-63
2021/03/01 00:58:49;;;;;;;16.07;8.90;;;;;;;3.48;58.98;98030.81;5069225;28;20179;-66
2021/03/01 01:01:15;;;;;;;17.17;9.17;;;;;;;3.54;58.66;98027.88;5104198;28;20174;-65
2021/03/01 01:03:41;;;;;;;15.90;9.17;;;;;;;3.47;59.09;98023.97;5037918;28;21121;-66
2021/03/01 01:06:07;;;;;;;14.77;9.37;;;;;;;3.62;58.57;98026.63;5064548;28;20479;-63
2021/03/01 01:08:33;;;;;;;17.30;9.50;;;;;;;3.77;58.10;98017.09;5071479;28;20327;-65
2021/03/01 01:10:58;;;;;;;20.40;9.23;;;;;;;3.75;57.65;98021.53;5071204;28;20305;-63
2021/03/01 01:13:24;;;;;;;17.73;8.90;;;;;;;3.57;58.52;98020.84;5071294;28;20452;-64
2021/03/01 01:15:50;;;;;;;14.00;9.10;;;;;;;3.60;59.17;98018.09;5072294;28;20507;-63
2021/03/01 01:18:16;;;;;;;17.47;9.60;;;;;;;3.64;58.43;98019.59;5071009;28;20444;-65
2021/03/01 01:20:41;;;;;;;18.97;9.23;;;;;;;3.54;58.91;98020.09;5070979;28;20186;-66
2021/03/01 01:23:07;;;;;;;20.60;10.83;;;;;;;3.56;58.98;98019.19;5071843;28;20186;-65
2021/03/01 01:25:33;;;;;;;15.23;9.00;;;;;;;3.53;58.76;98021.00;5066997;28;20287;-64
2021/03/01 01:27:58;;;;;;;17.53;9.80;;;;;;;3.53;59.61;98017.59;5071503;28;20549;-63
2021/03/01 01:30:25;;;;;;;16.80;10.00;;;;;;;3.64;58.73;98017.00;5063806;28;20602;-64
2021/03/01 01:32:51;;;;;;;18.17;10.10;;;;;;;3.30;59.17;98011.13;5071373;28;20174;-64
2021/03/01 01:35:18;;;;;;;17.97;10.20;;;;;;;3.33;59.94;98014.41;5071166;28;20456;-66
2021/03/01 01:37:44;;;;;;;15.67;9.00;;;;;;;3.36;59.85;98015.97;5071085;28;20507;-64
2021/03/01 01:40:12;;;;;;;16.07;9.37;;;;;;;3.57;58.78;98010.47;5071969;28;20504;-65
2021/03/01 01:42:38;;;;;;;18.20;9.87;;;;;;;3.50;59.08;98005.66;5063431;28;20289;-63
2021/03/01 01:45:15;;;;;;;17.43;10.50;;;;;;;3.69;58.57;98009.75;5070181;28;20902;-65
2021/03/01 01:47:42;;;;;;;19.13;11.03;;;;;;;3.53;58.79;98013.22;5070664;28;20208;-65
2021/03/01 01:50:09;;;;;;;17.63;9.90;;;;;;;3.56;58.56;98003.63;5072608;28;20967;-65
2021/03/01 01:52:35;;;;;;;14.80;10.00;;;;;;;3.51;59.18;98009.94;5070806;28;20433;-65
2021/03/01 01:55:02;;;;;;;15.77;9.73;;;;;;;3.50;59.32;98013.44;5072170;28;20476;-67
2021/03/01 01:57:27;;;;;;;15.40;9.20;;;;;;;3.23;59.63;98016.66;5052303;28;20213;-66
2021/03/01 01:59:53;;;;;;;14.87;9.47;;;;;;;3.35;59.32;98006.53;5062093;28;20413;-65
2021/03/01 02:02:20;;;;;;;17.30;9.90;;;;;;;3.31;60.02;98011.06;5070485;28;20170;-68
2021/03/01 02:04:49;;;;;;;14.40;9.50;;;;;;;3.44;59.24;98011.19;5052800;28;20179;-65
2021/03/01 02:07:47;;;;;;;21.37;9.57;;;;;;;3.17;60.21;98004.03;5070429;28;20912;-65
2021/03/01 02:10:21;;;;;;;21.90;11.63;;;;;;;3.29;60.17;98004.28;5054653;28;21033;-66
2021/03/01 02:13:03;;;;;;;21.17;11.17;;;;;;;3.40;59.81;97996.75;5069767;28;20419;-65
2021/03/01 02:15:40;;;;;;;19.77;11.07;;;;;;;3.07;60.14;98002.91;5069881;28;20947;-65
2021/03/01 02:18:05;;;;;;;19.67;10.90;;;;;;;3.04;60.51;97990.09;5069607;28;20412;-68
2021/03/01 02:20:31;;;;;;;20.70;11.30;;;;;;;3.25;60.06;98000.22;5071318;28;20415;-64
2021/03/01 02:22:57;;;;;;;21.40;11.80;;;;;;;3.28;59.58;97990.50;5071258;28;20332;-66
2021/03/01 02:25:24;;;;;;;19.77;11.33;;;;;;;3.17;59.44;97988.50;5060047;28;20191;-65
2021/03/01 02:27:54;;;;;;;24.13;12.97;;;;;;;3.13;59.54;97992.22;5067956;28;20267;-66
2021/03/01 02:30:32;;;;;;;19.30;11.10;;;;;;;3.21;59.74;97992.59;5062777;28;20456;-65
2021/03/01 02:33:03;;;;;;;23.97;12.50;;;;;;;3.20;59.40;97987.50;5071236;28;20432;-65
2021/03/01 02:35:33;;;;;;;24.07;10.77;;;;;;;3.14;59.49;97987.84;5074249;28;20874;-65
2021/03/01 02:38:00;;;;;;;20.70;11.37;;;;;;;3.19;59.45;97986.66;5073078;28;20807;-63
2021/03/01 02:40:27;;;;;;;22.30;10.93;;;;;;;3.19;59.42;97986.66;5073139;28;20416;-65
2021/03/01 02:42:53;;;;;;;21.60;11.00;;;;;;;3.12;59.22;97985.34;5066752;28;20413;-64
2021/03/01 02:45:18;;;;;;;17.50;10.20;;;;;;;3.16;59.30;97986.81;5073475;28;20978;-65
2021/03/01 02:47:44;;;;;;;21.33;10.73;;;;;;;3.16;59.33;97981.66;5074038;28;20416;-66
2021/03/01 02:50:13;;;;;;;18.47;9.23;;;;;;;3.09;59.55;97987.28;5074433;28;20198;-67
2021/03/01 02:52:40;;;;;;;16.63;9.57;;;;;;;3.14;59.62;97982.66;5072324;28;20210;-67
2021/03/01 02:55:08;;;;;;;17.47;10.27;;;;;;;2.96;60.22;97989.72;5072864;28;20432;-67
2021/03/01 02:57:34;;;;;;;19.17;10.30;;;;;;;3.17;59.61;97985.91;5067340;28;20915;-66
2021/03/01 03:00:03;;;;;;;17.83;10.00;;;;;;;3.06;59.61;97980.50;5065516;28;20421;-66
2021/03/01 03:02:29;;;;;;;18.00;10.63;;;;;;;2.99;59.62;97980.00;5074604;28;20906;-63
2021/03/01 03:04:55;;;;;;;15.10;9.37;;;;;;;2.67;60.63;97974.88;5072869;28;20425;-63
2021/03/01 03:07:22;;;;;;;16.43;9.77;;;;;;;2.80;60.40;97980.19;5074287;28;20861;-65
2021/03/01 03:09:48;;;;;;;15.30;10.10;;;;;;;2.79;60.45;97981.09;5054294;28;20460;-65
2021/03/01 03:12:14;;;;;;;20.17;10.03;;;;;;;2.81;60.43;97979.28;5073205;28;20428;-65
2021/03/01 03:14:41;;;;;;;15.70;9.73;;;;;;;2.99;60.05;97981.78;5074266;28;20489;-66
2021/03/01 03:17:07;;;;;;;14.77;9.43;;;;;;;2.52;61.38;97979.09;5072877;28;20483;-66
2021/03/01 03:19:33;;;;;;;18.23;9.87;;;;;;;2.57;61.28;97979.69;5072465;28;20421;-66
2021/03/01 03:21:59;;;;;;;17.80;9.90;;;;;;;2.64;60.72;97979.38;5065509;28;20416;-66
2021/03/01 03:24:24;;;;;;;17.80;10.67;;;;;;;2.88;60.57;97979.78;5069181;28;20262;-64
2021/03/01 03:26:50;;;;;;;22.40;10.70;;;;;;;2.68;61.00;97975.69;5072823;28;20297;-66
2021/03/01 03:29:16;;;;;;;16.10;9.90;;;;;;;2.79;60.67;97978.53;5068433;28;20971;-65
2021/03/01 03:31:41;;;;;;;15.50;10.33;;;;;;;2.80;60.47;97974.19;5070144;28;20193;-65
2021/03/01 03:34:07;;;;;;;16.67;10.17;;;;;;;2.61;61.28;97981.22;5072688;28;20178;-65
2021/03/01 03:36:36;;;;;;;14.87;10.00;;;;;;;2.87;60.10;97976.38;5074044;28;20573;-65
2021/03/01 03:39:06;;;;;;;20.03;10.70;;;;;;;2.50;62.02;97977.53;5071481;28;20190;-63
2021/03/01 03:41:32;;;;;;;16.93;9.63;;;;;;;2.81;60.99;97976.69;5066862;28;20443;-67
2021/03/01 03:44:00;;;;;;;14.53;9.60;;;;;;;3.03;60.37;97972.91;5070543;28;20441;-65
2021/03/01 03:46:27;;;;;;;18.30;10.47;;;;;;;2.76;60.87;97978.72;5073293;28;20285;-64
2021/03/01 03:48:53;;;;;;;20.20;10.93;;;;;;;2.82;60.46;97973.19;5071529;28;20420;-67
2021/03/01 03:51:20;;;;;;;15.80;9.50;;;;;;;3.01;60.38;97977.34;5072455;28;20416;-66
2021/03/01 03:53:50;;;;;;;16.40;9.97;;;;;;;2.98;59.86;97972.34;5070923;28;20947;-65
2021/03/01 03:56:21;;;;;;;16.53;10.33;;;;;;;2.97;59.94;97970.66;5073000;28;20455;-64
2021/03/01 03:58:49;;;;;;;17.13;10.20;;;;;;;3.11;59.46;97973.31;5070620;28;20436;-66
2021/03/01 04:01:18;;;;;;;17.07;10.20;;;;;;;3.21;59.34;97974.47;5084484;28;21237;-64
2021/03/01 04:03:46;;;;;;;17.13;10.43;;;;;;;3.23;59.37;97970.03;5072747;28;20429;-65
2021/03/01 04:06:14;;;;;;;17.80;10.70;;;;;;;3.12;58.87;97969.81;5072166;28;20436;-65
2021/03/01 04:08:40;;;;;;;17.23;10.37;;;;;;;3.14;59.09;97972.31;5072774;28;20893;-67
2021/03/01 04:11:06;;;;;;;17.83;10.03;;;;;;;3.03;59.35;97965.13;5058692;28;20820;-66
2021/03/01 04:13:32;;;;;;;17.97;10.60;;;;;;;3.06;59.60;97963.22;5058763;28;20435;-63
2021/03/01 04:15:58;;;;;;;18.27;10.57;;;;;;;3.27;59.11;97968.09;5071194;28;20311;-66
2021/03/01 04:18:26;;;;;;;15.40;9.70;;;;;;;3.32;59.07;97965.22;5071543;28;20428;-65
2021/03/01 04:20:56;;;;;;;15.40;10.20;;;;;;;3.37;58.52;97963.22;5048815;28;20441;-66
2021/03/01 04:23:22;;;;;;;17.47;10.63;;;;;;;3.33;58.59;97967.75;5057536;28;20421;-65
2021/03/01 04:25:49;;;;;;;18.83;10.37;;;;;;;3.34;58.50;97968.56;5052369;28;20869;-66
2021/03/01 04:28:15;;;;;;;17.77;11.00;;;;;;;3.26;58.38;97963.00;5050768;28;20458;-65
2021/03/01 04:30:41;;;;;;;16.70;9.97;;;;;;;3.30;58.35;97962.75;5034688;28;21020;-66
2021/03/01 04:33:07;;;;;;;16.90;9.87;;;;;;;3.32;58.25;97966.09;5051818;28;20647;-65
2021/03/01 04:35:34;;;;;;;18.53;11.10;;;;;;;3.27;58.14;97962.91;5052053;28;20944;-66
2021/03/01 04:37:59;;;;;;;15.87;10.17;;;;;;;3.27;58.42;97964.69;5051576;28;20434;-66
2021/03/01 04:40:25;;;;;;;16.10;9.40;;;;;;;3.23;58.43;97961.41;5051280;28;20796;-65
2021/03/01 04:42:51;;;;;;;15.13;10.00;;;;;;;3.27;58.13;97960.31;5059051;28;20191;-66
2021/03/01 04:45:19;;;;;;;22.73;11.33;;;;;;;3.21;58.57;97964.09;5051159;28;20203;-64
2021/03/01 04:47:46;;;;;;;18.37;10.73;;;;;;;3.16;58.43;97960.91;5049915;28;20187;-66
2021/03/01 04:50:13;;;;;;;16.63;10.13;;;;;;;3.12;58.64;97967.22;5035130;28;20535;-66
2021/03/01 04:52:39;;;;;;;22.30;10.40;;;;;;;3.03;58.72;97968.56;5084868;28;21199;-66
2021/03/01 04:55:06;;;;;;;17.73;10.67;;;;;;;3.13;58.62;97968.03;5050875;28;20421;-64
2021/03/01 04:57:32;;;;;;;18.20;10.60;;;;;;;3.22;58.66;97970.09;5052717;28;20425;-67
2021/03/01 05:00:04;;;;;;;18.27;10.17;;;;;;;3.18;58.50;97966.84;5050815;28;20417;-64
2021/03/01 05:02:30;;;;;;;21.07;11.43;;;;;;;3.05;58.81;97958.09;5058848;28;20440;-65
2021/03/01 05:04:57;;;;;;;16.00;10.13;;;;;;;2.95;59.00;97970.75;5050150;28;20488;-64
2021/03/01 05:07:24;;;;;;;20.80;10.80;;;;;;;2.87;59.06;97975.50;5049837;28;20558;-65
2021/03/01 05:09:50;;;;;;;17.67;10.00;;;;;;;2.82;59.38;97973.19;5051113;28;20489;-65
2021/03/01 05:12:15;;;;;;;20.03;10.73;;;;;;;2.75;59.61;97975.28;5051538;28;20495;-65
2021/03/01 05:14:41;;;;;;;18.87;10.67;;;;;;;2.84;59.40;97970.50;5050384;28;20429;-66
2021/03/01 05:17:07;;;;;;;18.73;11.30;;;;;;;2.96;58.90;97971.59;5050906;28;20745;-66
2021/03/01 05:19:32;;;;;;;17.70;10.00;;;;;;;2.95;58.87;97972.50;5049026;28;20187;-63
2021/03/01 05:21:58;;;;;;;20.47;10.70;;;;;;;2.98;58.88;97973.16;5060800;28;20663;-66
2021/03/01 05:24:24;;;;;;;15.73;10.13;;;;;;;2.96;58.95;97974.16;5049420;28;20603;-66
2021/03/01 05:26:49;;;;;;;17.30;10.30;;;;;;;2.68;59.66;97980.88;5050953;28;20207;-64
2021/03/01 05:29:16;;;;;;;19.50;11.57;;;;;;;2.81;59.54;97979.28;5050893;28;20233;-65
2021/03/01 05:31:42;;;;;;;19.83;10.93;;;;;;;2.95;59.28;97982.84;5059126;28;20200;-66
2021/03/01 05:34:07;;;;;;;17.57;10.83;;;;;;;3.02;59.09;97981.63;5061681;28;20426;-65
2021/03/01 05:36:33;;;;;;;19.23;11.07;;;;;;;3.00;59.14;97986.03;5062704;28;20224;-65
2021/03/01 05:38:59;;;;;;;19.47;11.30;;;;;;;2.98;59.00;97986.09;5051388;28;20613;-65
2021/03/01 05:41:25;;;;;;;17.97;9.93;;;;;;;2.88;59.34;97984.94;5054813;28;20186;-66
2021/03/01 05:43:51;;;;;;;20.63;10.93;;;;;;;2.80;59.06;97984.56;5053597;28;20207;-65
2021/03/01 05:46:17;;;;;;;19.37;10.90;;;;;;;2.73;59.83;97977.09;5050819;28;20502;-65
2021/03/01 05:48:43;;;;;;;19.77;10.57;;;;;;;2.82;59.63;97983.53;5049698;28;20795;-66
2021/03/01 05:51:09;;;;;;;16.73;10.43;;;;;;;2.71;59.81;97985.88;5042785;28;20477;-66
2021/03/01 05:53:37;;;;;;;19.00;11.60;;;;;;;2.42;60.18;97978.78;5051215;28;20198;-67
2021/03/01 05:56:04;;;;;;;21.53;12.00;;;;;;;2.62;60.12;97982.03;5049670;28;20448;-66
2021/03/01 05:58:29;;;;;;;20.00;11.20;;;;;;;2.50;60.14;97987.88;5049493;28;20426;-68
2021/03/01 06:01:05;;;;;;;16.67;11.00;;;;;;;2.52;60.33;97984.28;5048889;28;20863;-65
2021/03/01 06:03:34;;;;;;;18.70;11.77;;;;;;;2.66;59.93;97983.56;5051700;28;20263;-66
2021/03/01 06:06:01;;;;;;;23.73;10.70;;;;;;;2.31;60.89;97978.53;5050992;28;20441;-65
2021/03/01 06:08:27;;;;;;;29.47;11.60;;;;;;;2.50;60.42;97983.56;5061149;28;20438;-65
2021/03/01 06:10:57;;;;;;;20.63;12.00;;;;;;;2.34;60.52;97983.50;5054779;28;20472;-66
2021/03/01 06:13:24;;;;;;;22.20;10.43;;;;;;;2.55;60.68;97991.06;5055369;28;20426;-66
2021/03/01 06:15:53;;;;;;;20.23;11.37;;;;;;;2.57;60.11;97989.22;5054063;28;20768;-65
2021/03/01 06:18:18;;;;;;;22.93;11.57;;;;;;;2.51;60.50;97990.41;5060306;28;20434;-66
2021/03/01 06:20:44;;;;;;;19.23;11.47;;;;;;;2.72;60.38;97992.72;5051284;28;20425;-64
2021/03/01 06:23:10;;;;;;;19.27;11.60;;;;;;;2.65;60.32;97999.19;5053551;28;20183;-65
2021/03/01 06:25:36;;;;;;;24.00;12.37;;;;;;;2.58;60.50;98002.09;5043883;28;20860;-65
2021/03/01 06:28:04;;;;;;;19.43;11.17;;;;;;;2.72;60.88;98003.09;5053926;28;20197;-63
2021/03/01 06:30:31;;;;;;;21.50;11.70;;;;;;;2.83;60.29;97999.94;5069415;28;20210;-66
2021/03/01 06:33:09;;;;;;;21.00;11.40;;;;;;;2.99;60.13;97997.31;5074227;28;20454;-65
2021/03/01 06:35:38;;;;;;;23.17;11.17;;;;;;;3.17;59.48;97998.88;5067356;28;20476;-64
2021/03/01 06:38:21;;;;;;;23.60;11.83;;;;;;;3.35;59.37;97993.56;5072679;28;20433;-63
2021/03/01 06:41:11;;;;;;;19.70;10.90;;;;;;;3.54;59.19;98001.94;5072753;28;20421;-66
2021/03/01 06:43:39;;;;;;;36.57;12.57;;;;;;;3.70;58.15;97995.88;5070270;28;20912;-65
2021/03/01 06:46:14;;;;;;;21.70;11.67;;;;;;;3.84;58.57;97995.91;5073166;28;20463;-64
2021/03/01 06:48:41;;;;;;;27.40;12.13;;;;;;;3.99;58.02;98003.72;5074106;28;20443;-66
2021/03/01 06:51:08;;;;;;;25.73;12.40;;;;;;;4.12;57.93;98001.19;5071674;28;20464;-66
2021/03/01 06:53:34;;;;;;;29.13;13.20;;;;;;;4.23;57.56;98003.16;5073612;28;20805;-64
2021/03/01 06:56:09;;;;;;;27.23;13.00;;;;;;;4.32;56.96;98004.38;5073430;28;20456;-67
2021/03/01 06:58:40;;;;;;;26.10;14.17;;;;;;;4.46;56.39;98002.59;5068823;28;20471;-65
2021/03/01 07:01:08;;;;;;;29.80;15.23;;;;;;;4.57;56.04;98012.31;5074256;28;20425;-64
2021/03/01 07:03:34;;;;;;;29.47;14.87;;;;;;;4.62;55.90;98009.44;5075185;28;20428;-65
2021/03/01 07:06:01;;;;;;;29.63;15.47;;;;;;;4.68;55.22;98009.03;5065253;28;20786;-65
2021/03/01 07:08:35;;;;;;;27.63;14.60;;;;;;;4.82;55.05;98008.19;5073545;28;20450;-67
2021/03/01 07:11:01;;;;;;;23.40;14.40;;;;;;;4.93;55.48;98007.50;5057247;28;20511;-66
2021/03/01 07:13:31;;;;;;;28.73;15.00;;;;;;;5.01;54.91;98002.66;5073155;28;20424;-66
2021/03/01 07:15:57;;;;;;;27.27;14.40;;;;;;;5.12;54.83;98007.16;5072418;28;20456;-65
2021/03/01 07:18:23;;;;;;;29.67;13.80;;;;;;;5.17;54.54;98010.31;5073640;28;20429;-66
2021/03/01 07:20:49;;;;;;;29.23;14.97;;;;;;;5.29;54.91;98016.50;5072964;28;20425;-64
2021/03/01 07:23:16;;;;;;;21.97;12.83;;;;;;;5.40;54.38;98017.56;5073093;28;20412;-65
2021/03/01 07:25:45;;;;;;;30.23;12.40;;;;;;;5.49;54.04;98014.34;5068893;28;20448;-66
2021/03/01 07:28:17;;;;;;;19.30;11.13;;;;;;;5.61;53.99;98018.75;5056475;28;21210;-67
2021/03/01 07:30:44;;;;;;;20.57;11.60;;;;;;;5.68;53.93;98014.81;5070548;28;20951;-66
2021/03/01 07:33:14;;;;;;;21.70;11.17;;;;;;;5.74;53.26;98015.34;5073568;28;20420;-65
2021/03/01 07:35:40;;;;;;;20.53;11.43;;;;;;;5.88;53.22;98015.25;5071821;28;20437;-65
2021/03/01 07:38:07;;;;;;;18.87;11.73;;;;;;;5.91;52.96;98019.41;5073153;28;20429;-64
2021/03/01 07:40:33;;;;;;;20.80;12.50;;;;;;;5.84;53.15;98022.44;5075664;28;20424;-63
2021/03/01 07:42:59;;;;;;;19.53;10.93;;;;;;;6.09;52.84;98015.63;5064906;28;20431;-67
2021/03/01 07:45:25;;;;;;;17.93;11.87;;;;;;;6.24;51.96;98023.28;5072058;28;20233;-65
2021/03/01 07:47:50;;;;;;;17.27;10.67;;;;;;;6.19;52.08;98013.19;5073362;28;20463;-65
2021/03/01 07:50:37;;;;;;;19.13;12.40;;;;;;;6.39;51.71;98018.81;5055256;28;20234;-65
2021/03/01 07:53:03;;;;;;;18.70;11.10;;;;;;;6.46;51.25;98014.84;5064823;28;20684;-64
2021/03/01 07:55:29;;;;;;;19.60;11.43;;;;;;;6.55;51.23;98010.78;5073204;28;20503;-65
2021/03/01 07:58:04;;;;;;;17.87;12.20;;;;;;;6.63;50.72;98007.63;5072556;28;20421;-65
2021/03/01 08:00:34;;;;;;;18.97;12.17;;;;;;;6.57;51.07;98007.13;5067685;28;20409;-65
2021/03/01 08:03:35;;;;;;;19.03;11.70;;;;;;;6.82;50.57;98017.59;5072020;28;20425;-65
2021/03/01 08:06:01;;;;;;;20.73;12.80;;;;;;;6.82;50.03;98013.19;5061185;28;20480;-67
2021/03/01 08:08:50;;;;;;;21.20;12.23;;;;;;;6.95;50.15;98018.38;5070029;28;20446;-67
2021/03/01 08:11:42;;;;;;;20.77;11.70;;;;;;;7.16;49.50;98018.63;5057201;28;20483;-66
2021/03/01 08:14:12;;;;;;;18.23;11.77;;;;;;;7.32;48.85;98022.72;5074712;28;20903;-68
2021/03/01 08:16:38;;;;;;;20.87;11.70;;;;;;;7.27;49.19;98019.63;5073733;28;20837;-66
2021/03/01 08:19:04;;;;;;;18.13;10.73;;;;;;;7.36;48.73;98016.34;5071186;28;20428;-66
2021/03/01 08:22:02;;;;;;;17.87;11.40;;;;;;;7.40;48.62;98012.56;5064641;28;20424;-65
2021/03/01 08:24:50;;;;;;;21.07;11.33;;;;;;;7.69;48.13;98020.00;5056553;28;20185;-65
2021/03/01 08:27:24;;;;;;;14.90;9.80;;;;;;;7.90;47.82;98007.13;5057074;28;20440;-66
2021/03/01 08:30:18;;;;;;;17.30;11.50;;;;;;;8.01;47.47;98011.53;5065554;28;20546;-67
2021/03/01 08:32:44;;;;;;;18.40;10.20;;;;;;;8.11;47.65;98004.66;5072319;28;20421;-68
2021/03/01 08:35:23;;;;;;;15.30;10.70;;;;;;;8.13;47.01;98007.16;5070685;28;20705;-66
2021/03/01 08:37:50;;;;;;;15.80;10.50;;;;;;;7.90;47.28;98019.34;5071894;28;20478;-65
2021/03/01 08:40:20;;;;;;;15.63;10.50;;;;;;;7.95;47.69;98009.38;5067067;28;20852;-65
2021/03/01 08:42:53;;;;;;;16.13;9.93;;;;;;;7.84;47.15;98011.03;5061500;28;20433;-66
2021/03/01 08:45:28;;;;;;;15.73;9.90;;;;;;;7.93;47.38;98021.75;5071402;28;20441;-66
2021/03/01 08:47:56;;;;;;;12.70;8.50;;;;;;;7.61;46.99;98017.13;5071389;28;20432;-64
2021/03/01 08:50:36;;;;;;;14.10;10.47;;;;;;;8.20;46.67;98028.41;5068875;28;20463;-66
2021/03/01 08:53:01;;;;;;;13.40;8.80;;;;;;;8.46;46.38;98018.59;5055052;28;20469;-66
2021/03/01 08:55:27;;;;;;;13.00;9.23;;;;;;;8.32;46.46;98017.03;5051621;28;20454;-65
2021/03/01 08:58:07;;;;;;;13.43;8.47;;;;;;;8.62;46.67;98012.19;5053079;28;20190;-64
2021/03/01 09:00:37;;;;;;;16.70;10.03;;;;;;;8.83;44.73;98012.28;5053454;28;20417;-65
2021/03/01 09:03:10;;;;;;;14.60;9.60;;;;;;;8.75;45.68;98002.44;5057122;28;20420;-65
2021/03/01 09:05:35;;;;;;;12.70;8.20;;;;;;;9.03;44.23;98005.47;5057000;28;20445;-65
2021/03/01 09:08:01;;;;;;;15.93;10.10;;;;;;;9.13;44.71;98013.41;5051282;28;20422;-67
2021/03/01 09:10:35;;;;;;;16.33;10.37;;;;;;;8.99;44.82;98007.50;5052142;28;20211;-65
2021/03/01 09:13:01;;;;;;;14.83;8.90;;;;;;;9.21;43.62;98008.38;5051705;28;20182;-66
2021/03/01 09:15:26;;;;;;;12.77;7.43;;;;;;;8.84;43.49;98004.31;5052073;28;20461;-66
2021/03/01 09:17:52;;;;;;;10.40;7.20;;;;;;;9.34;42.64;98006.44;5052603;28;20429;-65
2021/03/01 09:20:18;;;;;;;12.37;7.73;;;;;;;8.60;43.94;98005.31;5059815;28;20193;-65
2021/03/01 09:22:44;;;;;;;10.40;7.17;;;;;;;8.83;43.72;98005.28;5051818;28;20183;-68
2021/03/01 09:25:31;;;;;;;14.13;8.67;;;;;;;9.24;43.22;98007.31;5052409;28;20209;-66
2021/03/01 09:27:57;;;;;;;10.20;6.90;;;;;;;9.20;42.67;98006.72;5051741;28;20948;-65
2021/03/01 09:30:24;;;;;;;12.00;7.10;;;;;;;9.33;43.15;98002.16;5049674;28;20457;-64
2021/03/01 09:33:01;;;;;;;11.43;7.73;;;;;;;9.60;42.76;98000.84;5051568;28;20422;-67
2021/03/01 09:35:28;;;;;;;15.07;7.70;;;;;;;9.60;42.16;98000.03;5052085;28;20943;-64
2021/03/01 09:37:55;;;;;;;15.93;8.13;;;;;;;9.30;42.57;97997.19;5051906;28;20524;-66
2021/03/01 09:40:22;;;;;;;11.40;8.20;;;;;;;9.63;42.35;98003.22;5049822;28;20497;-65
2021/03/01 09:42:53;;;;;;;12.97;8.43;;;;;;;9.50;42.85;97992.94;5058335;28;20469;-66
2021/03/01 09:45:20;;;;;;;13.83;8.37;;;;;;;9.97;41.50;97997.78;5052555;28;20436;-66
2021/03/01 09:47:47;;;;;;;12.97;8.20;;;;;;;10.26;41.10;97991.88;5044153;28;20418;-65
2021/03/01 09:50:13;;;;;;;14.90;8.20;;;;;;;9.87;41.44;98002.13;5058989;28;20963;-65
2021/03/01 09:52:40;;;;;;;11.30;7.63;;;;;;;10.29;40.90;97999.47;5051834;28;20438;-67
2021/03/01 09:55:07;;;;;;;11.60;7.90;;;;;;;10.49;40.35;97994.34;5051726;28;20814;-65
2021/03/01 09:57:33;;;;;;;14.67;7.20;;;;;;;10.45;40.09;97990.34;5051230;28;20422;-64
2021/03/01 09:59:59;;;;;;;22.03;9.03;;;;;;;10.71;39.75;97987.25;5051268;28;20757;-64
2021/03/01 10:02:24;;;;;;;12.97;8.70;;;;;;;10.79;39.72;97992.63;5051272;28;20183;-66
2021/03/01 10:04:52;;;;;;;13.97;8.53;;;;;;;10.79;39.97;97997.03;5051328;28;20565;-66
2021/03/01 10:07:26;;;;;;;12.40;8.20;;;;;;;10.74;38.88;97986.94;5051392;28;20684;-66
2021/03/01 10:09:53;;;;;;;15.17;7.90;;;;;;;11.15;37.98;97989.53;5043647;28;20457;-65
2021/03/01 10:12:19;;;;;;;13.90;8.17;;;;;;;10.75;38.29;97988.63;5040401;28;20470;-63
2021/03/01 10:14:45;;;;;;;12.00;8.83;;;;;;;10.62;38.48;97988.88;5075906;28;20455;-66
2021/03/01 10:17:31;;;;;;;10.90;8.07;;;;;;;10.50;38.39;97984.69;5044621;28;20449;-65
2021/03/01 10:20:11;;;;;;;11.43;8.50;;;;;;;10.63;38.64;97981.81;5044276;28;20410;-64
2021/03/01 10:23:05;;;;;;;13.43;8.83;;;;;;;10.67;37.83;97985.84;5044735;28;20430;-65
2021/03/01 10:25:42;;;;;;;11.50;7.20;;;;;;;11.13;36.83;97981.78;5045388;28;20485;-65
2021/03/01 10:28:33;;;;;;;11.00;8.30;;;;;;;11.00;36.93;97981.22;5049246;28;20433;-63
2021/03/01 10:31:04;;;;;;;13.90;8.70;;;;;;;11.03;36.37;97980.94;5055099;28;20579;-64
2021/03/01 10:33:30;;;;;;;15.53;8.23;;;;;;;10.89;36.05;97975.13;5057214;28;20440;-64
2021/03/01 10:36:10;;;;;;;17.80;7.50;;;;;;;11.42;36.00;97978.34;5050531;28;20441;-66
2021/03/01 10:39:05;;;;;;;12.10;8.37;;;;;;;11.53;35.08;97977.34;5049485;28;20430;-65
2021/03/01 10:41:46;;;;;;;11.20;7.93;;;;;;;11.83;34.24;97979.00;5037310;28;20424;-65
2021/03/01 10:44:13;;;;;;;14.60;7.90;;;;;;;12.06;33.81;97973.44;5042112;28;20437;-64
2021/03/01 10:46:41;;;;;;;9.40;6.93;;;;;;;11.95;33.69;97969.13;5050953;28;20511;-65
2021/03/01 10:49:27;;;;;;;11.03;7.10;;;;;;;12.30;32.95;97964.22;5055141;28;20418;-64
2021/03/01 10:51:55;;;;;;;16.40;7.57;;;;;;;12.60;33.08;97968.38;5050922;28;20515;-62
2021/03/01 10:54:21;;;;;;;9.77;6.93;;;;;;;12.55;32.25;97961.91;5053353;28;20503;-65
2021/03/01 10:56:46;;;;;;;8.47;6.97;;;;;;;12.73;32.92;97970.63;5035410;28;20472;-66
2021/03/01 10:59:12;;;;;;;12.27;6.77;;;;;;;12.74;32.09;97956.50;5053554;28;20627;-66
2021/03/01 11:01:40;;;;;;;15.70;7.40;;;;;;;12.64;31.38;97955.75;5053812;28;20183;-65
2021/03/01 11:04:06;;;;;;;25.33;11.20;;;;;;;12.84;31.43;97960.91;5060320;28;20443;-63
2021/03/01 11:06:33;;;;;;;13.50;6.50;;;;;;;13.22;31.27;97951.09;5053896;28;20540;-63
2021/03/01 11:08:59;;;;;;;9.63;7.13;;;;;;;12.85;31.09;97958.13;5052635;28;20864;-65
2021/03/01 11:11:25;;;;;;;11.70;6.43;;;;;;;12.69;31.27;97948.25;5064212;28;20980;-66
2021/03/01 11:13:51;;;;;;;10.97;6.00;;;;;;;13.19;31.01;97946.94;5054428;28;20437;-65
2021/03/01 11:16:16;;;;;;;9.50;5.63;;;;;;;13.25;29.21;97942.03;5053946;28;20222;-65
2021/03/01 11:18:42;;;;;;;9.20;5.80;;;;;;;13.33;29.06;97942.09;5053726;28;20206;-66
2021/03/01 11:21:08;;;;;;;11.63;6.10;;;;;;;13.33;29.08;97942.94;5052880;28;20171;-67
2021/03/01 11:23:34;;;;;;;7.90;5.70;;;;;;;13.38;28.67;97942.50;5049039;28;20452;-66
2021/03/01 11:25:59;;;;;;;14.20;5.80;;;;;;;12.95;28.85;97938.81;5054588;28;20230;-65
2021/03/01 11:28:25;;;;;;;9.57;5.93;;;;;;;13.35;28.22;97933.09;5053006;28;20183;-65
2021/03/01 11:30:51;;;;;;;10.30;5.97;;;;;;;13.14;27.82;97929.94;5054779;28;20202;-65
2021/03/01 11:33:18;;;;;;;7.23;4.93;;;;;;;13.64;27.75;97925.94;5053394;28;20448;-66